Time;durP1;ratioP1;P1;durP2;ratioP2;P2;SDS_P1;SDS_P2;PMS_P1;PMS_P2;Temp;Humidity;BMP_temperature;BMP_pressure;BME280_temperature;BME280_humidity;BME280_pressure;Samples;Min_cycle;Max_cycle;Signal;HPM_P1;HPM_P2
2021/03/05 00:01:08;;;;;;;13.47;2.90;;;;;;;3.30;71.18;102432.72;5093131;28;20031;-42
2021/03/05 00:03:34;;;;;;;10.77;2.20;;;;;;;3.28;70.92;102424.00;5109019;28;20040;-42
2021/03/05 00:06:00;;;;;;;14.32;2.92;;;;;;;3.23;71.31;102428.94;5093573;28;20028;-42
2021/03/05 00:08:25;;;;;;;13.38;3.15;;;;;;;3.27;71.17;102434.81;5093577;28;20452;-42
2021/03/05 00:10:51;;;;;;;14.47;3.33;;;;;;;3.25;71.91;102437.66;5093612;28;20150;-42
2021/03/05 00:13:19;;;;;;;9.75;2.45;;;;;;;3.28;72.38;102447.22;5092697;28;20107;-42
2021/03/05 00:15:44;;;;;;;14.30;2.58;;;;;;;3.30;72.22;102443.41;5093049;28;20053;-42
2021/03/05 00:18:10;;;;;;;12.73;3.13;;;;;;;3.24;72.46;102448.50;5092687;28;20173;-42
2021/03/05 00:20:41;;;;;;;15.43;3.47;;;;;;;3.21;72.43;102448.78;5093242;28;20032;-42
2021/03/05 00:23:06;;;;;;;12.73;2.55;;;;;;;3.29;72.84;102443.56;5096004;28;20016;-42
2021/03/05 00:25:32;;;;;;;8.98;2.20;;;;;;;3.34;73.17;102458.19;5096534;28;20055;-42
2021/03/05 00:27:57;;;;;;;6.90;2.47;;;;;;;3.34;73.05;102452.84;5096679;28;20464;-42
2021/03/05 00:30:23;;;;;;;14.50;2.77;;;;;;;3.31;73.28;102452.28;5096692;28;20030;-42
2021/03/05 00:32:48;;;;;;;12.85;3.53;;;;;;;3.27;73.13;102456.22;5096338;28;20027;-42
2021/03/05 00:35:19;;;;;;;11.00;2.70;;;;;;;3.27;73.17;102459.75;5097184;28;20059;-42
2021/03/05 00:37:44;;;;;;;13.20;3.38;;;;;;;3.27;73.42;102466.91;5095951;28;20085;-42
2021/03/05 00:40:12;;;;;;;10.85;2.55;;;;;;;3.27;74.00;102456.22;5096274;28;20036;-42
2021/03/05 00:42:39;;;;;;;14.00;3.60;;;;;;;3.26;73.75;102465.22;5096132;28;20106;-42
2021/03/05 00:45:06;;;;;;;11.63;3.20;;;;;;;3.27;74.20;102462.44;5096102;28;20028;-42
2021/03/05 00:47:31;;;;;;;11.25;2.78;;;;;;;3.27;74.22;102470.47;5095913;28;20032;-42
2021/03/05 00:49:56;;;;;;;11.93;3.47;;;;;;;3.31;74.39;102473.66;5096863;28;20032;-42
2021/03/05 00:52:22;;;;;;;12.83;3.43;;;;;;;3.24;74.78;102469.88;5096027;28;20380;-42
2021/03/05 00:54:47;;;;;;;15.23;3.78;;;;;;;3.27;75.10;102474.94;5095973;28;20085;-42
2021/03/05 00:57:13;;;;;;;13.83;4.17;;;;;;;3.21;75.83;102473.69;5095575;28;20040;-42
2021/03/05 00:59:38;;;;;;;12.97;3.60;;;;;;;3.18;76.38;102479.34;5095542;28;20024;-42
2021/03/05 01:02:03;;;;;;;9.53;4.27;;;;;;;3.17;76.16;102480.28;5095769;28;20039;-42
2021/03/05 01:04:29;;;;;;;9.97;4.07;;;;;;;3.16;76.34;102481.28;5096086;28;20103;-42
2021/03/05 01:06:54;;;;;;;16.67;5.37;;;;;;;3.20;76.94;102488.03;5095679;28;20464;-42
2021/03/05 01:09:19;;;;;;;7.67;4.23;;;;;;;3.25;76.88;102490.28;5095929;28;20052;-42
2021/03/05 01:11:45;;;;;;;11.77;5.03;;;;;;;3.26;76.59;102495.47;5095581;28;20024;-42
2021/03/05 01:14:11;;;;;;;11.53;5.80;;;;;;;3.28;76.50;102484.66;5095890;28;20028;-42
2021/03/05 01:16:36;;;;;;;12.13;5.45;;;;;;;3.26;77.17;102494.63;5095514;28;20476;-42
2021/03/05 01:19:08;;;;;;;13.83;5.40;;;;;;;3.26;77.32;102497.31;5096012;28;20510;-42
2021/03/05 01:21:33;;;;;;;14.18;5.40;;;;;;;3.27;77.35;102494.53;5095431;28;20081;-42
2021/03/05 01:23:58;;;;;;;9.77;4.97;;;;;;;3.26;77.77;102500.81;5095258;28;20036;-42
2021/03/05 01:26:24;;;;;;;10.97;6.30;;;;;;;3.25;77.36;102495.63;5095271;28;20032;-42
2021/03/05 01:28:49;;;;;;;12.03;5.70;;;;;;;3.25;77.74;102492.97;5095296;28;20409;-42
2021/03/05 01:31:15;;;;;;;8.47;5.63;;;;;;;3.28;77.46;102504.22;5095242;28;20055;-42
2021/03/05 01:33:41;;;;;;;10.63;6.53;;;;;;;3.16;77.42;102502.66;5095083;28;20032;-42
2021/03/05 01:36:09;;;;;;;14.80;6.72;;;;;;;3.18;77.47;102502.56;5095702;28;20027;-42
2021/03/05 01:38:34;;;;;;;12.50;6.70;;;;;;;3.18;77.33;102503.38;5095089;28;20025;-42
2021/03/05 01:41:00;;;;;;;12.15;6.82;;;;;;;3.18;77.67;102494.53;5094944;28;20097;-42
2021/03/05 01:43:28;;;;;;;11.17;7.00;;;;;;;3.19;77.83;102501.56;5095596;28;20456;-42
2021/03/05 01:45:53;;;;;;;10.25;7.03;;;;;;;3.18;78.08;102506.06;5095131;28;20028;-42
2021/03/05 01:48:19;;;;;;;12.90;7.50;;;;;;;3.12;77.79;102503.94;5094901;28;20081;-42
2021/03/05 01:51:12;;;;;;;11.73;6.78;;;;;;;3.13;77.22;102500.31;5095495;28;20028;-42
2021/03/05 01:53:42;;;;;;;10.90;6.80;;;;;;;3.13;78.61;102494.94;5095037;28;20347;-42
2021/03/05 01:56:08;;;;;;;13.75;7.38;;;;;;;3.05;77.59;102502.81;5095057;28;20031;-42
2021/03/05 01:58:34;;;;;;;;;;;;;;;3.06;77.76;102504.50;5095727;28;20056;-42
2021/03/05 02:01:10;;;;;;;10.45;7.13;;;;;;;2.97;77.83;102506.19;5094720;28;19918;-42
2021/03/05 02:03:37;;;;;;;13.13;8.05;;;;;;;2.92;78.12;102502.25;5094597;28;20032;-42
2021/03/05 02:06:06;;;;;;;9.52;7.25;;;;;;;2.87;79.84;102504.50;5094522;28;20028;-42
2021/03/05 02:08:32;;;;;;;14.05;7.78;;;;;;;2.82;78.38;102510.25;5094219;28;20480;-43
2021/03/05 02:10:58;;;;;;;14.00;9.33;;;;;;;2.80;78.24;102513.09;5093445;28;20036;-42
2021/03/05 02:13:24;;;;;;;15.35;8.63;;;;;;;2.77;78.47;102516.03;5094445;28;20274;-42
2021/03/05 02:15:51;;;;;;;13.13;8.00;;;;;;;2.75;78.59;102520.69;5094742;28;20116;-42
2021/03/05 02:18:29;;;;;;;12.75;8.30;;;;;;;2.70;78.45;102522.91;5094584;28;20024;-42
2021/03/05 02:21:03;;;;;;;13.40;9.48;;;;;;;2.65;78.78;102527.84;5094616;28;20059;-42
2021/03/05 02:23:39;;;;;;;14.40;8.90;;;;;;;2.63;79.35;102535.13;5094217;28;20030;-42
2021/03/05 02:26:25;;;;;;;15.38;8.88;;;;;;;2.58;78.68;102546.22;5094376;28;20028;-42
2021/03/05 02:29:04;;;;;;;15.55;10.60;;;;;;;2.54;79.03;102543.97;5094253;28;20107;-42
2021/03/05 02:32:10;;;;;;;12.85;9.43;;;;;;;2.51;78.72;102549.59;5093516;28;20107;-42
2021/03/05 02:34:40;;;;;;;12.60;8.00;;;;;;;2.48;79.23;102553.34;5051977;28;20037;-42
2021/03/05 02:37:08;;;;;;;12.65;8.35;;;;;;;2.38;78.40;102554.31;5034935;28;20044;-42
2021/03/05 02:39:45;;;;;;;11.57;8.80;;;;;;;2.40;78.38;102555.88;5051328;28;20386;-42
2021/03/05 02:42:18;;;;;;;13.93;8.75;;;;;;;2.32;78.70;102561.03;5051615;28;20489;-42
2021/03/05 02:44:48;;;;;;;11.63;8.60;;;;;;;2.32;78.69;102561.88;5051019;28;20051;-42
2021/03/05 02:47:16;;;;;;;12.82;8.95;;;;;;;2.23;78.66;102568.03;5051149;28;20075;-42
2021/03/05 02:49:43;;;;;;;12.15;8.23;;;;;;;2.20;79.32;102565.66;5051244;28;20037;-42
2021/03/05 02:52:13;;;;;;;11.85;8.50;;;;;;;2.15;78.43;102569.66;5051159;28;20091;-42
2021/03/05 02:54:41;;;;;;;14.10;9.23;;;;;;;2.12;78.69;102569.97;5051244;28;20079;-42
2021/03/05 02:57:09;;;;;;;11.63;8.10;;;;;;;2.05;79.01;102583.00;5051036;28;20128;-42
2021/03/05 02:59:37;;;;;;;10.68;8.10;;;;;;;1.98;79.17;102584.50;5051679;28;20025;-42
2021/03/05 03:02:03;;;;;;;13.15;8.85;;;;;;;1.95;79.01;102593.63;5051234;28;20127;-42
2021/03/05 03:04:30;;;;;;;11.60;8.35;;;;;;;1.85;79.02;102590.00;5051323;28;20434;-42
2021/03/05 03:06:56;;;;;;;11.60;8.02;;;;;;;1.80;79.64;102590.41;5050926;28;20440;-42
2021/03/05 03:09:21;;;;;;;;;;;;;;;1.89;78.67;102590.59;5061229;28;20373;-42
2021/03/05 03:11:48;;;;;;;9.90;7.10;;;;;;;1.75;79.10;102591.78;5093551;28;20006;-42
2021/03/05 03:14:14;;;;;;;;;;;;;;;1.78;78.75;102603.03;5094222;28;20047;-42
2021/03/05 03:16:41;;;;;;;14.00;8.80;;;;;;;1.64;78.60;102605.19;5093225;28;20364;-42
2021/03/05 03:19:13;;;;;;;13.98;8.10;;;;;;;1.55;79.39;102604.97;5094021;28;20035;-42
2021/03/05 03:21:39;;;;;;;12.32;8.80;;;;;;;1.59;79.04;102605.56;5093788;28;20553;-42
2021/03/05 03:24:07;;;;;;;11.93;7.80;;;;;;;1.49;79.07;102610.00;5093460;28;20050;-42
2021/03/05 03:26:35;;;;;;;11.00;8.57;;;;;;;1.52;79.45;102615.06;5093866;28;20053;-42
2021/03/05 03:29:01;;;;;;;11.63;8.55;;;;;;;1.50;80.04;102617.84;5093392;28;20032;-42
2021/03/05 03:31:26;;;;;;;12.93;9.27;;;;;;;1.44;79.85;102617.53;5093135;28;20046;-42
2021/03/05 03:33:51;;;;;;;11.57;8.13;;;;;;;1.46;80.21;102621.75;5093690;28;20107;-42
2021/03/05 03:36:18;;;;;;;14.33;8.33;;;;;;;1.46;80.01;102623.56;5093592;28;20037;-42
2021/03/05 03:38:45;;;;;;;12.63;9.13;;;;;;;1.45;80.44;102621.88;5094110;28;20028;-42
2021/03/05 03:41:13;;;;;;;12.00;8.38;;;;;;;1.38;79.66;102615.38;5093220;28;20059;-42
2021/03/05 03:43:38;;;;;;;9.82;8.35;;;;;;;1.36;80.26;102623.47;5094072;28;20032;-42
2021/03/05 03:46:07;;;;;;;13.37;9.03;;;;;;;1.31;80.19;102624.84;5093775;28;20042;-42
2021/03/05 03:48:34;;;;;;;13.88;8.77;;;;;;;1.28;81.05;102628.63;5092885;28;20103;-42
2021/03/05 03:51:02;;;;;;;12.07;8.75;;;;;;;1.23;80.76;102626.34;5094036;28;20035;-42
2021/03/05 03:53:30;;;;;;;11.13;8.18;;;;;;;1.27;80.57;102633.13;5093193;28;20036;-42
2021/03/05 03:55:56;;;;;;;13.45;9.07;;;;;;;1.19;80.50;102630.22;5095242;28;20020;-42
2021/03/05 03:58:28;;;;;;;16.52;9.30;;;;;;;1.23;80.59;102637.00;5095785;28;20040;-42
2021/03/05 04:01:02;;;;;;;11.32;8.10;;;;;;;1.24;81.17;102635.19;5096979;28;20040;-42
2021/03/05 04:03:31;;;;;;;11.90;8.57;;;;;;;1.18;80.98;102647.19;5097195;28;20027;-42
2021/03/05 04:05:57;;;;;;;14.80;7.90;;;;;;;1.14;80.91;102652.91;5097122;28;20536;-42
2021/03/05 04:08:23;;;;;;;;;;;;;;;1.20;79.74;102653.22;5097213;28;20159;-42
2021/03/05 04:10:50;;;;;;;15.95;8.55;;;;;;;1.06;81.00;102661.50;5097082;28;20030;-42
2021/03/05 04:13:16;;;;;;;17.65;8.80;;;;;;;1.07;81.57;102662.34;5097261;28;20028;-42
2021/03/05 04:15:42;;;;;;;15.27;9.52;;;;;;;1.05;81.60;102661.63;5096810;28;20027;-42
2021/03/05 04:18:07;;;;;;;12.10;7.85;;;;;;;1.10;81.83;102656.78;5096607;28;20028;-42
2021/03/05 04:20:38;;;;;;;15.55;8.60;;;;;;;0.96;81.19;102666.72;5096598;28;20032;-42
2021/03/05 04:23:05;;;;;;;16.38;9.52;;;;;;;1.00;81.68;102677.97;5097077;28;20384;-42
2021/03/05 04:25:30;;;;;;;12.75;9.25;;;;;;;0.93;81.44;102684.78;5096234;28;20118;-42
2021/03/05 04:27:56;;;;;;;14.50;9.40;;;;;;;0.95;81.59;102681.00;5096122;28;20103;-42
2021/03/05 04:30:21;;;;;;;13.87;8.30;;;;;;;0.98;81.71;102686.09;5097028;28;20028;-42
2021/03/05 04:32:47;;;;;;;14.00;8.88;;;;;;;0.90;81.45;102687.69;5095996;28;20035;-42
2021/03/05 04:35:12;;;;;;;12.30;10.00;;;;;;;0.80;81.69;102687.56;5096686;28;20428;-42
2021/03/05 04:37:38;;;;;;;15.07;9.30;;;;;;;0.69;82.12;102703.56;5096271;28;20032;-42
2021/03/05 04:40:06;;;;;;;13.70;9.13;;;;;;;0.70;82.73;102695.44;5096289;28;20016;-42
2021/03/05 04:42:32;;;;;;;15.77;8.70;;;;;;;0.70;82.01;102700.78;5096684;28;20021;-42
2021/03/05 04:44:57;;;;;;;12.90;8.82;;;;;;;0.64;81.97;102695.94;5095938;28;20541;-42
2021/03/05 04:47:23;;;;;;;15.70;8.50;;;;;;;0.58;81.62;102692.88;5096062;28;20517;-42
2021/03/05 04:49:48;;;;;;;11.63;8.30;;;;;;;0.62;82.26;102700.50;5096625;28;20035;-42
2021/03/05 04:52:13;;;;;;;13.70;8.73;;;;;;;0.67;81.52;102702.81;5096306;28;20028;-42
2021/03/05 04:54:39;;;;;;;11.90;8.50;;;;;;;0.69;81.15;102701.75;5095777;28;20499;-42
2021/03/05 04:57:04;;;;;;;11.73;7.77;;;;;;;0.67;80.89;102703.66;5095949;28;20059;-42
2021/03/05 04:59:30;;;;;;;12.65;8.05;;;;;;;0.71;81.55;102710.44;5096468;28;20032;-42
2021/03/05 05:01:55;;;;;;;14.30;8.20;;;;;;;0.55;79.99;102706.47;5095802;28;20028;-42
2021/03/05 05:04:20;;;;;;;11.43;7.63;;;;;;;0.56;80.24;102714.31;5111485;28;20039;-42
2021/03/05 05:06:46;;;;;;;12.50;7.57;;;;;;;0.57;80.95;102720.50;5095154;28;20107;-42
2021/03/05 05:09:11;;;;;;;12.30;7.57;;;;;;;0.59;80.13;102730.06;5095173;28;20050;-42
2021/03/05 05:11:36;;;;;;;14.10;7.60;;;;;;;0.54;80.53;102726.91;5095412;28;20039;-42
2021/03/05 05:14:02;;;;;;;11.97;7.03;;;;;;;0.60;80.98;102726.44;5096098;28;20483;-42
2021/03/05 05:16:28;;;;;;;11.07;7.43;;;;;;;0.56;80.14;102735.63;5095554;28;20108;-42
2021/03/05 05:18:53;;;;;;;12.02;7.22;;;;;;;0.60;81.19;102737.06;5095729;28;20124;-42
2021/03/05 05:21:19;;;;;;;16.65;7.45;;;;;;;0.52;80.47;102735.00;5095468;28;20466;-42
2021/03/05 05:23:44;;;;;;;12.87;7.23;;;;;;;0.52;79.75;102742.13;5094301;28;20157;-42
2021/03/05 05:26:12;;;;;;;12.17;6.63;;;;;;;0.51;79.42;102735.97;5095925;28;20036;-42
2021/03/05 05:28:38;;;;;;;11.45;6.93;;;;;;;0.36;79.18;102738.97;5095045;28;20024;-42
2021/03/05 05:31:03;;;;;;;10.23;6.60;;;;;;;0.44;79.40;102741.88;5095625;28;20039;-42
2021/03/05 05:33:28;;;;;;;13.00;6.90;;;;;;;0.44;80.10;102750.72;5094913;28;20036;-42
2021/03/05 05:35:54;;;;;;;13.67;7.40;;;;;;;0.38;78.98;102751.19;5095315;28;20024;-42
2021/03/05 05:38:19;;;;;;;12.33;7.40;;;;;;;0.22;78.75;102745.34;5095142;28;20039;-42
2021/03/05 05:40:44;;;;;;;13.13;7.10;;;;;;;0.20;78.99;102753.47;5095955;28;20098;-42
2021/03/05 05:43:10;;;;;;;11.50;6.87;;;;;;;0.18;78.99;102752.72;5095070;28;20360;-42
2021/03/05 05:45:35;;;;;;;9.13;6.43;;;;;;;0.09;79.17;102755.22;5095286;28;20596;-42
2021/03/05 05:48:01;;;;;;;12.30;6.70;;;;;;;0.19;80.23;102761.53;5095114;28;20028;-42
2021/03/05 05:50:28;;;;;;;12.60;6.68;;;;;;;0.15;78.96;102760.94;5111513;28;20368;-42
2021/03/05 05:52:56;;;;;;;8.93;6.40;;;;;;;0.21;78.71;102771.09;5094303;28;20371;-42
2021/03/05 05:55:21;;;;;;;10.07;6.30;;;;;;;0.18;78.13;102774.00;5095113;28;20036;-43
2021/03/05 05:57:47;;;;;;;12.73;6.95;;;;;;;0.15;78.72;102771.59;5095207;28;20044;-42
2021/03/05 06:00:13;;;;;;;10.13;6.33;;;;;;;0.20;78.97;102777.41;5094780;28;20024;-43
2021/03/05 06:02:42;;;;;;;10.68;6.65;;;;;;;0.07;77.17;102773.13;5094311;28;20063;-42
2021/03/05 06:05:09;;;;;;;13.18;6.05;;;;;;;0.09;78.29;102776.50;5094627;28;20036;-42
2021/03/05 06:07:36;;;;;;;10.75;5.75;;;;;;;0.07;77.56;102794.41;5109428;28;20488;-42
2021/03/05 06:10:02;;;;;;;10.25;6.22;;;;;;;0.11;78.35;102791.41;5095047;28;20027;-42
2021/03/05 06:12:27;;;;;;;10.45;6.05;;;;;;;0.02;78.10;102785.91;5094226;28;20388;-42
2021/03/05 06:14:53;;;;;;;7.80;5.20;;;;;;;0.04;77.08;102800.78;5094731;28;20032;-42
2021/03/05 06:17:18;;;;;;;10.68;6.45;;;;;;;-0.04;76.90;102798.72;5094363;28;20032;-42
2021/03/05 06:19:44;;;;;;;13.43;6.57;;;;;;;-0.06;77.93;102805.09;5094372;28;20028;-41
2021/03/05 06:22:20;;;;;;;7.93;5.90;;;;;;;-0.01;77.98;102809.09;5094326;28;20020;-42
2021/03/05 06:24:46;;;;;;;8.95;5.25;;;;;;;0.02;79.82;102808.03;5095082;28;20020;-42
2021/03/05 06:27:12;;;;;;;11.38;6.05;;;;;;;-0.02;78.56;102819.88;5094093;28;20490;-41
2021/03/05 06:29:45;;;;;;;9.82;6.40;;;;;;;-0.05;78.48;102826.28;5094731;28;20024;-41
2021/03/05 06:32:12;;;;;;;9.73;6.13;;;;;;;-0.09;78.01;102822.13;5094014;28;20031;-41
2021/03/05 06:34:52;;;;;;;9.55;6.25;;;;;;;-0.08;78.38;102825.66;5094419;28;20036;-42
2021/03/05 06:37:20;;;;;;;10.00;6.53;;;;;;;-0.10;78.61;102825.78;5094033;28;20115;-42
2021/03/05 06:39:56;;;;;;;13.38;6.63;;;;;;;-0.03;78.54;102831.47;5093788;28;20031;-42
2021/03/05 06:42:21;;;;;;;13.45;6.40;;;;;;;-0.03;78.43;102831.47;5094506;28;20028;-42
2021/03/05 06:44:47;;;;;;;9.83;6.27;;;;;;;-0.01;78.55;102832.19;5094828;28;20043;-42
2021/03/05 06:47:20;;;;;;;15.07;7.57;;;;;;;0.00;77.35;102839.25;5093498;28;20024;-42
2021/03/05 06:49:48;;;;;;;11.75;7.05;;;;;;;-0.01;77.34;102853.47;5094586;28;20643;-42
2021/03/05 06:52:21;;;;;;;8.48;6.15;;;;;;;-0.04;78.15;102857.22;5094015;28;20051;-42
2021/03/05 06:54:47;;;;;;;9.45;6.15;;;;;;;-0.01;78.37;102856.13;5094594;28;20032;-42
2021/03/05 06:57:14;;;;;;;8.60;6.27;;;;;;;0.01;77.17;102864.88;5093486;28;20048;-42
2021/03/05 06:59:45;;;;;;;9.90;6.47;;;;;;;0.01;77.28;102870.19;5093187;28;20527;-42
2021/03/05 07:02:11;;;;;;;9.82;5.55;;;;;;;0.05;76.86;102866.34;5093746;28;20027;-42
2021/03/05 07:04:42;;;;;;;8.90;5.82;;;;;;;0.10;76.52;102874.84;5093466;28;20027;-42
2021/03/05 07:07:10;;;;;;;10.13;5.85;;;;;;;0.11;76.41;102875.69;5093012;28;20024;-42
2021/03/05 07:09:35;;;;;;;12.70;6.65;;;;;;;0.17;76.69;102883.19;5093682;28;20032;-42
2021/03/05 07:12:16;;;;;;;8.20;5.77;;;;;;;0.19;76.77;102879.44;5093885;28;20089;-42
2021/03/05 07:14:44;;;;;;;10.13;5.60;;;;;;;0.29;75.90;102889.41;5093397;28;20035;-42
2021/03/05 07:17:10;;;;;;;11.88;6.88;;;;;;;0.26;75.36;102893.19;5093351;28;20042;-42
2021/03/05 07:19:38;;;;;;;10.45;6.47;;;;;;;0.27;75.66;102886.03;5093361;28;20107;-42
2021/03/05 07:22:07;;;;;;;10.48;5.47;;;;;;;0.35;74.87;102888.97;5093408;28;20531;-42
2021/03/05 07:24:34;;;;;;;10.07;5.68;;;;;;;0.37;75.03;102908.34;5093754;28;20025;-42
2021/03/05 07:27:04;;;;;;;8.95;5.00;;;;;;;0.42;74.94;102906.19;5109681;28;20380;-43
2021/03/05 07:29:46;;;;;;;7.53;4.80;;;;;;;0.46;73.94;102910.31;5093422;28;20032;-42
2021/03/05 07:32:35;;;;;;;14.63;5.30;;;;;;;0.52;73.94;102924.00;5096846;28;20024;-42
2021/03/05 07:35:05;;;;;;;9.00;5.00;;;;;;;0.57;73.45;102926.34;5098114;28;20116;-42
2021/03/05 07:37:49;;;;;;;7.93;4.45;;;;;;;0.67;73.98;102924.69;5097293;28;20035;-42
2021/03/05 07:40:15;;;;;;;7.10;4.13;;;;;;;0.85;73.26;102926.94;5098139;28;20341;-42
2021/03/05 07:42:41;;;;;;;6.65;3.78;;;;;;;0.76;71.69;102925.81;5097887;28;20024;-42
2021/03/05 07:45:08;;;;;;;11.20;4.63;;;;;;;0.84;71.50;102931.41;5097403;28;20042;-42
2021/03/05 07:47:35;;;;;;;9.55;5.25;;;;;;;0.94;71.68;102934.22;5097215;28;20285;-42
2021/03/05 07:50:02;;;;;;;7.75;4.68;;;;;;;1.03;71.22;102938.84;5097258;28;20028;-42
2021/03/05 07:52:28;;;;;;;8.90;4.18;;;;;;;0.97;70.38;102936.63;5097042;28;20028;-42
2021/03/05 07:54:54;;;;;;;8.93;4.03;;;;;;;0.93;69.97;102937.88;5097933;28;20436;-42
2021/03/05 07:57:19;;;;;;;9.70;4.43;;;;;;;0.91;68.80;102950.44;5096882;28;20063;-42
2021/03/05 07:59:51;;;;;;;6.77;4.10;;;;;;;0.93;69.22;102946.69;5097594;28;20075;-42
2021/03/05 08:02:22;;;;;;;8.75;4.40;;;;;;;0.88;69.18;102942.66;5096733;28;20028;-42
2021/03/05 08:04:48;;;;;;;6.50;4.07;;;;;;;1.09;70.09;102949.03;5097454;28;20456;-41
2021/03/05 08:07:14;;;;;;;9.10;4.35;;;;;;;1.16;69.39;102955.56;5096799;28;20107;-42
2021/03/05 08:09:39;;;;;;;9.73;4.68;;;;;;;1.19;67.86;102958.03;5097375;28;20024;-42
2021/03/05 08:15:07;;;;;;;8.52;5.57;;;;;;;1.35;68.36;102967.50;5096982;28;20036;-42
2021/03/05 08:17:40;;;;;;;13.75;5.82;;;;;;;1.48;68.74;102963.75;5096898;28;20067;-42
2021/03/05 08:20:07;;;;;;;10.00;5.30;;;;;;;1.65;68.50;102957.09;5096423;28;20464;-42
2021/03/05 08:22:33;;;;;;;8.05;3.72;;;;;;;1.72;67.53;102961.00;5097118;28;20024;-42
2021/03/05 08:25:32;;;;;;;7.35;3.58;;;;;;;1.83;67.38;102961.94;5097349;28;20114;-42
2021/03/05 08:28:00;;;;;;;5.57;2.78;;;;;;;1.90;66.45;102976.50;5096328;28;20112;-42
2021/03/05 08:30:34;;;;;;;11.00;3.90;;;;;;;1.88;65.81;102983.78;5097286;28;20043;-42
2021/03/05 08:33:03;;;;;;;5.60;3.20;;;;;;;1.89;65.16;102986.31;5096273;28;20028;-42
2021/03/05 08:35:29;;;;;;;8.27;3.10;;;;;;;2.01;66.14;102990.69;5096098;28;20045;-42
2021/03/05 08:38:06;;;;;;;5.80;2.90;;;;;;;1.91;64.55;102989.72;5096351;28;20464;-42
2021/03/05 08:41:06;;;;;;;8.65;3.13;;;;;;;1.99;64.97;102987.28;5096287;28;20024;-42
2021/03/05 08:43:36;;;;;;;6.13;2.70;;;;;;;2.12;64.39;102988.97;5094937;28;20024;-42
2021/03/05 08:46:07;;;;;;;9.18;2.83;;;;;;;2.22;65.48;102988.13;5096142;28;20138;-42
2021/03/05 08:48:48;;;;;;;10.82;3.20;;;;;;;2.24;65.05;102986.16;5096348;28;20028;-42
2021/03/05 08:51:16;;;;;;;7.70;2.70;;;;;;;2.33;64.71;102987.25;5097095;28;20035;-42
2021/03/05 08:53:49;;;;;;;5.43;2.85;;;;;;;2.31;63.96;102992.72;5095709;28;20028;-42
2021/03/05 08:56:18;;;;;;;5.85;2.80;;;;;;;2.41;64.28;102995.47;5096493;28;20037;-42
2021/03/05 08:58:44;;;;;;;6.40;2.92;;;;;;;2.37;62.83;102993.19;5096083;28;20070;-42
2021/03/05 09:01:29;;;;;;;7.30;2.63;;;;;;;2.52;64.44;103000.78;5096322;28;20578;-42
2021/03/05 09:04:08;;;;;;;5.35;3.20;;;;;;;2.48;63.39;103004.69;5095664;28;20032;-42
2021/03/05 09:06:33;;;;;;;10.20;3.35;;;;;;;2.36;62.20;103013.69;5096522;28;20028;-42
2021/03/05 09:09:09;;;;;;;8.90;3.07;;;;;;;2.45;63.37;103009.44;5096046;28;20030;-42
2021/03/05 09:11:35;;;;;;;10.57;2.67;;;;;;;2.60;63.51;103016.19;5096054;28;20166;-42
2021/03/05 09:14:17;;;;;;;4.67;2.47;;;;;;;2.64;63.45;103014.97;5095934;28;20482;-42
2021/03/05 09:16:56;;;;;;;8.23;2.67;;;;;;;2.71;63.35;103013.50;5096412;28;20028;-42
2021/03/05 09:19:32;;;;;;;5.43;2.72;;;;;;;2.89;63.90;103002.25;5095805;28;20099;-42
2021/03/05 09:22:21;;;;;;;6.20;2.50;;;;;;;3.08;62.09;103013.13;5095491;28;20028;-42
2021/03/05 09:24:53;;;;;;;5.55;2.33;;;;;;;3.14;62.47;103009.06;5095250;28;20039;-42
2021/03/05 09:27:34;;;;;;;6.57;2.63;;;;;;;3.20;63.32;103005.88;5095567;28;20078;-42
2021/03/05 09:30:12;;;;;;;5.97;3.00;;;;;;;3.10;61.05;103011.16;5095365;28;20113;-42
2021/03/05 09:32:47;;;;;;;4.65;2.30;;;;;;;3.23;62.01;103005.63;5095227;28;20024;-43
2021/03/05 09:35:13;;;;;;;5.18;2.20;;;;;;;3.27;62.32;103013.25;5095512;28;20028;-42
2021/03/05 09:37:39;;;;;;;4.35;2.20;;;;;;;3.44;63.06;103010.97;5095366;28;20464;-42
2021/03/05 09:40:08;;;;;;;5.57;2.03;;;;;;;3.58;61.35;103006.13;5095474;28;20084;-42
2021/03/05 09:42:48;;;;;;;6.60;2.00;;;;;;;3.72;60.16;103007.59;5094774;28;20031;-42
2021/03/05 09:45:39;;;;;;;4.72;2.05;;;;;;;3.79;57.90;103022.13;5095327;28;20047;-42
2021/03/05 09:48:06;;;;;;;4.07;1.88;;;;;;;3.78;56.36;103025.81;5095214;28;20020;-43
2021/03/05 09:50:32;;;;;;;5.53;1.88;;;;;;;3.77;56.61;103009.88;5095165;28;20031;-42
2021/03/05 09:53:18;;;;;;;4.75;1.70;;;;;;;3.89;57.13;103006.13;5095044;28;20028;-42
2021/03/05 09:55:49;;;;;;;4.05;1.90;;;;;;;3.97;56.03;103013.50;5094523;28;20032;-42
2021/03/05 09:58:14;;;;;;;6.80;1.90;;;;;;;3.97;56.68;103014.34;5094890;28;20521;-42
2021/03/05 10:00:40;;;;;;;5.03;1.77;;;;;;;4.11;55.41;103010.47;5094547;28;20027;-42
2021/03/05 10:03:10;;;;;;;5.33;1.73;;;;;;;4.22;55.18;103018.38;5094719;28;20020;-42
2021/03/05 10:05:38;;;;;;;3.97;1.83;;;;;;;4.21;53.32;103016.69;5095219;28;20460;-42
2021/03/05 10:08:34;;;;;;;2.55;1.30;;;;;;;4.20;49.17;103022.16;5094555;28;20083;-42
2021/03/05 10:11:03;;;;;;;4.22;1.50;;;;;;;4.22;52.50;103018.38;5092543;28;20127;-42
2021/03/05 10:13:45;;;;;;;3.70;1.42;;;;;;;4.28;51.93;103015.16;5094419;28;20031;-42
2021/03/05 10:16:23;;;;;;;3.97;1.50;;;;;;;4.36;46.51;103017.16;5095040;28;20039;-42
2021/03/05 10:19:00;;;;;;;2.28;1.35;;;;;;;4.34;48.30;103017.31;5094664;28;20040;-42
2021/03/05 10:21:26;;;;;;;5.80;1.52;;;;;;;4.53;47.91;103027.19;5095010;28;20452;-42
2021/03/05 10:23:51;;;;;;;2.67;1.23;;;;;;;4.62;47.88;103020.16;5094372;28;20024;-42
2021/03/05 10:26:27;;;;;;;4.85;2.47;;;;;;;4.50;45.89;103015.94;5094284;28;20024;-42
2021/03/05 10:28:59;;;;;;;5.13;1.33;;;;;;;4.67;45.69;103019.75;5094140;28;20020;-42
2021/03/05 10:31:41;;;;;;;4.03;1.25;;;;;;;4.63;45.09;103027.22;5094429;28;20051;-42
2021/03/05 10:34:21;;;;;;;3.13;1.05;;;;;;;4.47;44.95;103021.53;5094154;28;20107;-42
2021/03/05 10:36:47;;;;;;;5.40;1.25;;;;;;;4.32;43.52;103027.28;5094082;28;20089;-42
2021/03/05 10:39:13;;;;;;;2.45;1.05;;;;;;;4.52;45.65;103036.22;5093998;28;20028;-42
2021/03/05 10:41:38;;;;;;;5.37;1.37;;;;;;;4.62;45.25;103022.84;5094331;28;20483;-42
2021/03/05 10:44:04;;;;;;;3.67;1.13;;;;;;;4.68;42.61;103024.97;5093820;28;20024;-42
2021/03/05 10:46:29;;;;;;;2.67;1.40;;;;;;;4.75;43.67;103031.47;5093833;28;20105;-43
2021/03/05 10:48:54;;;;;;;4.43;1.50;;;;;;;4.64;45.06;103036.97;5094577;28;20027;-42
2021/03/05 10:51:20;;;;;;;2.67;1.03;;;;;;;4.75;45.48;103033.31;5093884;28;20024;-42
2021/03/05 10:53:45;;;;;;;2.00;0.80;;;;;;;4.70;40.09;103035.56;5094004;28;20019;-42
2021/03/05 10:56:10;;;;;;;2.70;1.10;;;;;;;4.93;40.33;103038.81;5093040;28;20032;-42
2021/03/05 10:58:36;;;;;;;2.27;0.77;;;;;;;4.97;41.54;103046.44;5093908;28;20464;-42
2021/03/05 11:01:01;;;;;;;2.37;0.70;;;;;;;5.12;41.89;103041.50;5093832;28;20036;-42
2021/03/05 11:03:26;;;;;;;3.27;0.90;;;;;;;5.19;40.68;103044.47;5094041;28;20072;-42
2021/03/05 11:05:51;;;;;;;2.70;1.00;;;;;;;5.27;40.04;103042.78;5093354;28;20081;-42
2021/03/05 11:08:17;;;;;;;5.27;0.60;;;;;;;5.31;39.57;103054.91;5093875;28;20028;-42
2021/03/05 11:10:43;;;;;;;1.92;0.88;;;;;;;5.36;39.78;103046.44;5093381;28;20031;-42
2021/03/05 11:13:08;;;;;;;4.40;1.63;;;;;;;5.27;38.98;103048.16;5094543;28;20028;-42
2021/03/05 11:15:33;;;;;;;2.27;0.87;;;;;;;5.39;40.80;103052.34;5093714;28;20024;-42
2021/03/05 11:17:59;;;;;;;3.10;1.10;;;;;;;5.40;39.08;103062.09;5094167;28;20114;-42
2021/03/05 11:20:24;;;;;;;5.37;1.10;;;;;;;5.60;41.40;103054.88;5093958;28;20055;-42
2021/03/05 11:22:50;;;;;;;2.33;1.10;;;;;;;5.50;40.29;103063.94;5093577;28;20156;-42
2021/03/05 11:25:15;;;;;;;;;;;;;;;5.59;42.62;103055.00;5093014;28;20035;-42
2021/03/05 11:27:41;;;;;;;2.27;0.80;;;;;;;5.61;40.83;103059.25;5093455;28;20309;-42
2021/03/05 11:30:07;;;;;;;4.80;0.90;;;;;;;5.75;39.81;103063.31;5093524;28;20480;-42
2021/03/05 11:32:33;;;;;;;3.65;1.10;;;;;;;5.84;38.40;103062.44;5093415;28;20027;-42
2021/03/05 11:34:59;;;;;;;2.15;0.90;;;;;;;6.03;39.40;103063.41;5093626;28;20028;-42
2021/03/05 11:37:24;;;;;;;2.75;0.88;;;;;;;5.92;38.16;103065.28;5093336;28;20521;-42
2021/03/05 11:39:50;;;;;;;3.17;1.20;;;;;;;5.99;39.55;103067.38;5093731;28;20047;-43